アムステルダム/スキポール の空港の天気 - METARとTAF

スキポール空港(アムステルダム) ( EHAM / AMS ) - オランダ アムステルダム
飛行場実況気象(Metar)
観測時間07/29 03:55 CEST (07/29 01:55 UTC)
風向・風速西南西 5m/s
視程10km以上
天気現象
少しの雲 雲底高度 610m
全天の4割程度の雲 雲底高度 760m
気温14℃
湿度88%
気圧1006hPa
METAREHAM 290155Z 24010KT 220V290 9999 FEW020CB SCT025 14/12 Q1006 RESHRA TEMPO 7000 -SHRA
過去の天気等 Google飛行場航空写真 Wunderground天気予報

過去48時間のMETAR

飛行場予報(TAF)
発表時間: 7/29 01:02 CEST (7/28 23:02 UTC)
予報対象時間: 29日2時 CEST ~ 30日8時 CEST
風向・風速南西 8m/s
視程10km以上
全天の4割程度の雲 雲底高度 910m
29日2時 CEST ~ 29日5時 CEST に一時的に
風向・風速西南西 10m/s 瞬間風速 15m/s
視程5000m
天気現象しゅう雨
全天の4割程度の積乱雲 雲底高度 610m
全天の8割程度の雲 雲底高度 910m
29日8時 CEST ~ 29日10時 CEST に徐々に
風向・風速西南西 10m/s 瞬間風速 15m/s
29日18時 CEST ~ 29日21時 CEST に徐々に
風向・風速南西 7m/s
30日2時 CEST ~ 30日5時 CEST に徐々に
風向・風速南南西 4m/s
TAF EHAM 282302Z 2900/3006 22015KT 9999 SCT030
TEMPO 2900/2903 24020G30KT 5000 SHRA SCT020CB BKN030
BECMG 2906/2908 25020G30KT
BECMG 2916/2919 23014KT
BECMG 3000/3003 20007KT